createdAt,value
2022-09-01T00:00:51.185Z,101189.00
2022-09-01T00:03:21.181Z,101199.00
2022-09-01T00:05:54.313Z,101194.00
2022-09-01T00:08:24.032Z,101199.00
2022-09-01T00:10:52.375Z,101198.00
2022-09-01T00:13:20.518Z,101197.00
2022-09-01T00:15:49.029Z,101196.00
2022-09-01T00:18:17.187Z,101195.00
2022-09-01T00:20:45.213Z,101192.00
2022-09-01T00:23:13.191Z,101190.00
2022-09-01T00:25:41.233Z,101197.00
2022-09-01T00:28:09.684Z,101196.00
2022-09-01T00:30:39.620Z,101199.00
2022-09-01T00:33:09.360Z,101203.00
2022-09-01T00:35:37.510Z,101207.00
2022-09-01T00:38:05.931Z,101203.00
2022-09-01T00:40:34.640Z,101195.00
2022-09-01T00:43:11.156Z,101199.00
2022-09-01T00:45:39.940Z,101199.00
2022-09-01T00:48:08.305Z,101192.00
2022-09-01T00:50:38.005Z,101198.00
2022-09-01T00:53:07.845Z,101198.00
2022-09-01T00:55:38.723Z,101200.00
2022-09-01T00:58:19.595Z,101198.00
2022-09-01T01:00:50.209Z,101202.00
2022-09-01T01:03:20.538Z,101199.00
2022-09-01T01:05:54.452Z,101198.00
2022-09-01T01:08:48.425Z,101192.00
2022-09-01T01:11:20.536Z,101192.00
2022-09-01T01:13:54.954Z,101194.00
2022-09-01T01:16:24.615Z,101196.00
2022-09-01T01:18:53.224Z,101196.00
2022-09-01T01:21:46.027Z,101189.00
2022-09-01T01:24:32.348Z,101187.00
2022-09-01T01:27:01.206Z,101187.00
2022-09-01T01:29:33.941Z,101188.00
2022-09-01T01:32:02.509Z,101183.00
2022-09-01T01:34:30.480Z,101191.00
2022-09-01T01:37:00.116Z,101193.00
2022-09-01T01:39:29.073Z,101189.00
2022-09-01T01:41:59.031Z,101184.00
2022-09-01T01:44:28.674Z,101186.00
2022-09-01T01:47:08.577Z,101182.00
2022-09-01T01:49:38.096Z,101183.00
2022-09-01T01:52:08.056Z,101186.00
2022-09-01T01:54:37.740Z,101184.00
2022-09-01T01:57:06.084Z,101197.00
2022-09-01T01:59:34.068Z,101190.00
2022-09-01T02:02:04.159Z,101194.00
2022-09-01T02:04:34.469Z,101195.00
2022-09-01T02:07:12.245Z,101193.00
2022-09-01T02:09:44.382Z,101195.00
2022-09-01T02:12:14.991Z,101196.00
2022-09-01T02:14:44.067Z,101197.00
2022-09-01T02:17:12.135Z,101199.00
2022-09-01T02:19:43.134Z,101200.00
2022-09-01T02:22:11.889Z,101193.00
2022-09-01T02:24:46.669Z,101185.00
2022-09-01T02:27:15.931Z,101193.00
2022-09-01T02:29:44.502Z,101190.00
2022-09-01T02:32:13.138Z,101193.00
2022-09-01T02:34:41.064Z,101188.00
2022-09-01T02:37:08.960Z,101185.00
2022-09-01T02:39:36.996Z,101190.00
2022-09-01T02:42:05.227Z,101186.00
2022-09-01T02:44:35.442Z,101179.00
2022-09-01T02:47:09.801Z,101174.00
2022-09-01T02:49:39.046Z,101183.00
2022-09-01T02:52:06.907Z,101174.00
2022-09-01T02:54:34.737Z,101175.00
2022-09-01T02:57:04.225Z,101176.00
2022-09-01T02:59:32.455Z,101173.00
2022-09-01T03:02:01.598Z,101176.00
2022-09-01T03:04:35.638Z,101180.00
2022-09-01T03:07:06.070Z,101168.00
2022-09-01T03:09:35.319Z,101165.00
2022-09-01T03:12:03.729Z,101174.00
2022-09-01T03:14:33.051Z,101170.00
2022-09-01T03:17:01.292Z,101174.00
2022-09-01T03:19:32.562Z,101178.00
2022-09-01T03:22:00.664Z,101174.00
2022-09-01T03:24:32.510Z,101167.00
2022-09-01T03:27:01.429Z,101167.00
2022-09-01T03:29:29.469Z,101169.00
2022-09-01T03:31:57.636Z,101167.00
2022-09-01T03:34:27.134Z,101161.00
2022-09-01T03:36:57.754Z,101163.00
2022-09-01T03:39:30.038Z,101167.00
2022-09-01T03:41:59.188Z,101165.00
2022-09-01T03:44:27.866Z,101169.00
2022-09-01T03:46:59.696Z,101171.00
2022-09-01T03:49:30.462Z,101166.00
2022-09-01T03:51:58.895Z,101164.00
2022-09-01T03:54:30.769Z,101174.00
2022-09-01T03:57:00.147Z,101162.00
2022-09-01T03:59:30.399Z,101168.00
2022-09-01T04:02:00.662Z,101164.00
2022-09-01T04:04:33.189Z,101163.00
2022-09-01T04:07:01.679Z,101163.00
2022-09-01T04:09:32.974Z,101166.00
2022-09-01T04:12:00.831Z,101169.00
2022-09-01T04:14:29.215Z,101168.00
2022-09-01T04:17:16.936Z,101179.00
2022-09-01T04:19:45.167Z,101172.00
2022-09-01T04:22:16.899Z,101170.00
2022-09-01T04:24:46.842Z,101169.00
2022-09-01T04:27:18.497Z,101171.00
2022-09-01T04:29:47.946Z,101177.00
2022-09-01T04:32:16.193Z,101173.00
2022-09-01T04:34:51.156Z,101172.00
2022-09-01T04:37:22.091Z,101164.00
2022-09-01T04:40:02.708Z,101171.00
2022-09-01T04:42:32.970Z,101175.00
2022-09-01T04:45:10.901Z,101172.00
2022-09-01T04:47:42.826Z,101168.00
2022-09-01T04:50:18.041Z,101174.00
2022-09-01T04:53:06.460Z,101173.00
2022-09-01T04:55:50.247Z,101173.00
2022-09-01T04:58:22.601Z,101176.00
2022-09-01T05:00:56.203Z,101174.00
2022-09-01T05:03:27.266Z,101182.00
2022-09-01T05:05:58.700Z,101183.00
2022-09-01T05:08:27.252Z,101176.00
2022-09-01T05:10:57.331Z,101179.00
2022-09-01T05:13:39.992Z,101169.00
2022-09-01T05:16:16.353Z,101171.00
2022-09-01T05:18:49.331Z,101174.00
2022-09-01T05:21:23.218Z,101179.00
2022-09-01T05:23:53.191Z,101181.00
2022-09-01T05:26:31.868Z,101177.00
2022-09-01T05:29:02.778Z,101179.00
2022-09-01T05:31:38.133Z,101184.00
2022-09-01T05:34:10.601Z,101181.00
2022-09-01T05:36:43.283Z,101192.00
2022-09-01T05:39:12.708Z,101190.00
2022-09-01T05:41:42.825Z,101193.00
2022-09-01T05:44:12.546Z,101194.00
2022-09-01T05:46:41.287Z,101188.00
2022-09-01T05:49:13.989Z,101187.00
2022-09-01T05:51:50.835Z,101185.00
2022-09-01T05:54:26.076Z,101188.00
2022-09-01T05:57:12.771Z,101196.00
2022-09-01T05:59:54.378Z,101194.00
2022-09-01T06:02:27.584Z,101191.00
2022-09-01T06:05:00.207Z,101192.00
2022-09-01T06:07:33.126Z,101187.00
2022-09-01T06:10:02.989Z,101193.00
2022-09-01T06:12:34.722Z,101195.00
2022-09-01T06:15:02.979Z,101192.00
2022-09-01T06:17:36.833Z,101200.00
2022-09-01T06:20:11.073Z,101189.00
2022-09-01T06:22:44.048Z,101192.00
2022-09-01T06:25:12.800Z,101187.00
2022-09-01T06:27:45.640Z,101199.00
2022-09-01T06:30:24.147Z,101192.00
2022-09-01T06:33:13.809Z,101199.00
2022-09-01T06:35:47.906Z,101197.00
2022-09-01T06:38:19.315Z,101200.00
2022-09-01T06:40:54.636Z,101204.00
2022-09-01T06:43:23.920Z,101212.00
2022-09-01T06:45:55.033Z,101202.00
2022-09-01T06:48:31.446Z,101206.00
2022-09-01T06:51:21.329Z,101208.00
2022-09-01T06:53:59.787Z,101212.00
2022-09-01T06:56:42.849Z,101216.00
2022-09-01T06:59:15.838Z,101217.00
2022-09-01T07:02:01.343Z,101223.00
2022-09-01T07:04:52.170Z,101224.00
2022-09-01T07:14:15.275Z,101221.00
2022-09-01T07:16:38.571Z,101207.00
2022-09-01T07:19:18.403Z,101220.00
2022-09-01T07:22:35.310Z,101223.00
2022-09-01T07:25:11.945Z,101217.00
2022-09-01T07:27:55.712Z,101221.00
2022-09-01T07:30:28.191Z,101217.00
2022-09-01T07:33:41.577Z,101230.00
2022-09-01T07:39:48.386Z,101218.00
2022-09-01T07:44:35.607Z,101221.00
2022-09-01T07:47:54.472Z,101215.00
2022-09-01T07:50:38.708Z,101221.00
2022-09-01T07:53:11.515Z,101220.00
2022-09-01T07:55:44.103Z,101219.00
2022-09-01T07:58:14.718Z,101224.00
2022-09-01T08:00:48.003Z,101217.00
2022-09-01T08:03:18.993Z,101220.00
2022-09-01T08:05:50.719Z,101223.00
2022-09-01T08:08:19.168Z,101217.00
2022-09-01T08:10:49.508Z,101218.00
2022-09-01T08:13:22.269Z,101227.00
2022-09-01T08:16:08.410Z,101236.00
2022-09-01T08:18:53.575Z,101228.00
2022-09-01T08:21:37.686Z,101231.00
2022-09-01T08:24:29.810Z,101235.00
2022-09-01T08:26:59.147Z,101233.00
2022-09-01T08:29:27.273Z,101235.00
2022-09-01T08:31:55.596Z,101235.00
2022-09-01T08:34:24.115Z,101235.00
2022-09-01T08:36:52.367Z,101235.00
2022-09-01T08:39:20.619Z,101232.00
2022-09-01T08:42:10.487Z,101230.00
2022-09-01T08:44:47.919Z,101237.00
2022-09-01T08:47:28.729Z,101231.00
2022-09-01T08:50:00.109Z,101232.00
2022-09-01T08:52:53.010Z,101226.00
2022-09-01T08:55:36.169Z,101229.00
2022-09-01T08:58:05.106Z,101232.00
2022-09-01T09:01:05.165Z,101238.00
2022-09-01T09:03:56.738Z,101228.00
2022-09-01T09:06:33.962Z,101229.00
2022-09-01T09:09:07.561Z,101222.00
2022-09-01T09:12:04.351Z,101229.00
2022-09-01T09:15:15.390Z,101222.00
2022-09-01T09:17:59.571Z,101228.00
2022-09-01T09:20:29.507Z,101228.00
2022-09-01T09:23:00.475Z,101225.00
2022-09-01T09:25:31.469Z,101219.00
2022-09-01T09:28:00.831Z,101221.00
2022-09-01T09:30:33.418Z,101221.00
2022-09-01T09:36:22.200Z,101221.00
2022-09-01T09:39:19.270Z,101219.00
2022-09-01T09:42:10.102Z,101215.00
2022-09-01T09:44:51.477Z,101213.00
2022-09-01T09:47:44.733Z,101214.00
2022-09-01T09:50:29.817Z,101213.00
2022-09-01T09:53:30.190Z,101215.00
2022-09-01T09:56:24.481Z,101218.00
2022-09-01T09:58:53.790Z,101222.00
2022-09-01T10:01:24.575Z,101216.00
2022-09-01T10:03:56.105Z,101226.00
2022-09-01T10:06:47.333Z,101217.00
2022-09-01T10:09:24.813Z,101211.00
2022-09-01T10:11:57.716Z,101217.00
2022-09-01T10:14:52.106Z,101211.00
2022-09-01T10:17:43.869Z,101201.00
2022-09-01T10:20:24.098Z,101203.00
2022-09-01T10:22:53.238Z,101206.00
2022-09-01T10:25:29.153Z,101204.00
2022-09-01T10:28:11.540Z,101204.00
2022-09-01T10:30:46.238Z,101208.00
2022-09-01T10:33:20.983Z,101204.00
2022-09-01T10:35:52.934Z,101200.00
2022-09-01T10:38:30.124Z,101200.00
2022-09-01T10:41:14.271Z,101203.00
2022-09-01T10:43:50.434Z,101198.00
2022-09-01T10:46:42.956Z,101200.00
2022-09-01T10:49:46.993Z,101202.00
2022-09-01T10:52:44.153Z,101204.00
2022-09-01T10:55:27.637Z,101204.00
2022-09-01T11:01:11.796Z,101203.00
2022-09-01T11:03:51.975Z,101199.00
2022-09-01T11:07:11.590Z,101196.00
2022-09-01T11:09:37.015Z,101202.00
2022-09-01T11:12:20.564Z,101191.00
2022-09-01T11:15:04.090Z,101188.00
2022-09-01T11:17:41.575Z,101183.00
2022-09-01T11:20:34.789Z,101188.00
2022-09-01T11:23:09.041Z,101182.00
2022-09-01T11:25:39.453Z,101172.00
2022-09-01T11:28:18.726Z,101169.00
2022-09-01T11:31:05.554Z,101177.00
2022-09-01T11:33:43.377Z,101178.00
2022-09-01T11:36:35.403Z,101174.00
2022-09-01T11:39:09.757Z,101179.00
2022-09-01T11:41:41.215Z,101178.00
2022-09-01T11:44:42.981Z,101178.00
2022-09-01T11:47:52.113Z,101170.00
2022-09-01T11:50:24.438Z,101174.00
2022-09-01T11:53:04.890Z,101178.00
2022-09-01T11:55:43.411Z,101167.00
2022-09-01T11:58:34.870Z,101180.00
2022-09-01T12:01:34.457Z,101172.00
2022-09-01T12:04:24.428Z,101171.00
2022-09-01T12:07:02.645Z,101177.00
2022-09-01T12:09:53.251Z,101173.00
2022-09-01T12:12:48.474Z,101176.00
2022-09-01T12:15:25.788Z,101175.00
2022-09-01T12:18:05.661Z,101171.00
2022-09-01T12:20:39.328Z,101167.00
2022-09-01T12:23:29.163Z,101171.00
2022-09-01T12:25:59.926Z,101166.00
2022-09-01T12:28:33.355Z,101164.00
2022-09-01T12:31:07.554Z,101165.00
2022-09-01T12:33:36.277Z,101159.00
2022-09-01T12:36:31.030Z,101159.00
2022-09-01T12:39:20.393Z,101168.00
2022-09-01T12:42:03.050Z,101163.00
2022-09-01T12:44:39.690Z,101163.00
2022-09-01T12:47:34.188Z,101155.00
2022-09-01T12:50:29.725Z,101164.00
2022-09-01T12:53:02.432Z,101153.00
2022-09-01T12:55:48.622Z,101154.00
2022-09-01T12:58:22.696Z,101158.00
2022-09-01T13:01:16.585Z,101153.00
2022-09-01T13:04:08.359Z,101145.00
2022-09-01T13:06:36.222Z,101152.00
2022-09-01T13:09:04.324Z,101144.00
2022-09-01T13:14:21.196Z,101146.00
2022-09-01T13:16:49.342Z,101135.00
2022-09-01T13:19:26.593Z,101135.00
2022-09-01T13:21:56.741Z,101131.00
2022-09-01T13:24:28.690Z,101126.00
2022-09-01T13:29:47.036Z,101132.00
2022-09-01T13:32:18.742Z,101130.00
2022-09-01T13:34:49.648Z,101124.00
2022-09-01T13:37:20.486Z,101120.00
2022-09-01T13:39:48.834Z,101116.00
2022-09-01T13:42:17.125Z,101119.00
2022-09-01T13:44:48.289Z,101112.00
2022-09-01T13:47:31.080Z,101111.00
2022-09-01T13:50:18.724Z,101103.00
2022-09-01T13:52:54.995Z,101111.00
2022-09-01T13:55:27.498Z,101110.00
2022-09-01T13:57:57.239Z,101110.00
2022-09-01T14:00:30.514Z,101104.00
2022-09-01T14:03:03.784Z,101103.00
2022-09-01T14:05:36.335Z,101106.00
2022-09-01T14:08:06.828Z,101094.00
2022-09-01T14:10:38.121Z,101091.00
2022-09-01T14:13:06.087Z,101088.00
2022-09-01T14:15:35.407Z,101090.00
2022-09-01T14:18:04.591Z,101090.00
2022-09-01T14:20:36.870Z,101086.00
2022-09-01T14:23:06.717Z,101088.00
2022-09-01T14:25:34.945Z,101093.00
2022-09-01T14:28:04.115Z,101095.00
2022-09-01T14:30:35.190Z,101090.00
2022-09-01T14:33:04.081Z,101096.00
2022-09-01T14:35:35.586Z,101087.00
2022-09-01T14:38:06.276Z,101086.00
2022-09-01T14:40:34.427Z,101087.00
2022-09-01T14:43:02.055Z,101088.00
2022-09-01T14:45:31.178Z,101093.00
2022-09-01T14:48:01.398Z,101083.00
2022-09-01T14:50:35.217Z,101078.00
2022-09-01T14:53:03.873Z,101075.00
2022-09-01T14:55:32.782Z,101082.00
2022-09-01T14:58:01.068Z,101077.00
2022-09-01T15:00:31.734Z,101071.00
2022-09-01T15:02:59.595Z,101064.00
2022-09-01T15:05:28.208Z,101063.00
2022-09-01T15:07:59.528Z,101066.00
2022-09-01T15:10:28.508Z,101061.00
2022-09-01T15:12:58.871Z,101070.00
2022-09-01T15:15:28.531Z,101058.00
2022-09-01T15:17:57.124Z,101064.00
2022-09-01T15:20:44.739Z,101070.00
2022-09-01T15:23:24.174Z,101070.00
2022-09-01T15:25:55.053Z,101068.00
2022-09-01T15:28:23.058Z,101070.00
2022-09-01T15:30:54.259Z,101070.00
2022-09-01T15:33:22.256Z,101069.00
2022-09-01T15:35:50.263Z,101061.00
2022-09-01T15:38:18.377Z,101058.00
2022-09-01T15:40:58.252Z,101065.00
2022-09-01T15:43:28.144Z,101055.00
2022-09-01T15:45:58.663Z,101054.00
2022-09-01T15:48:28.763Z,101055.00
2022-09-01T15:51:23.562Z,101059.00
2022-09-01T15:53:54.445Z,101052.00
2022-09-01T15:56:22.479Z,101056.00
2022-09-01T15:59:00.618Z,101048.00
2022-09-01T16:01:36.360Z,101052.00
2022-09-01T16:04:08.365Z,101053.00
2022-09-01T16:06:36.558Z,101049.00
2022-09-01T16:09:06.596Z,101043.00
2022-09-01T16:11:36.982Z,101046.00
2022-09-01T16:14:05.073Z,101047.00
2022-09-01T16:17:22.701Z,101040.00
2022-09-01T16:20:03.473Z,101048.00
2022-09-01T16:22:37.243Z,101041.00
2022-09-01T16:25:32.543Z,101035.00
2022-09-01T16:28:16.250Z,101044.00
2022-09-01T16:30:47.913Z,101045.00
2022-09-01T16:33:21.194Z,101040.00
2022-09-01T16:36:17.978Z,101045.00
2022-09-01T16:39:12.994Z,101045.00
2022-09-01T16:42:01.426Z,101039.00
2022-09-01T16:45:09.678Z,101040.00
2022-09-01T16:48:02.097Z,101037.00
2022-09-01T16:51:09.058Z,101039.00
2022-09-01T16:54:00.483Z,101041.00
2022-09-01T16:56:55.469Z,101042.00
2022-09-01T16:59:53.289Z,101038.00
2022-09-01T17:02:38.893Z,101037.00
2022-09-01T17:05:09.254Z,101033.00
2022-09-01T17:07:51.351Z,101031.00
2022-09-01T17:10:45.640Z,101030.00
2022-09-01T17:13:20.503Z,101032.00
2022-09-01T17:16:03.037Z,101031.00
2022-09-01T17:18:34.658Z,101030.00
2022-09-01T17:21:14.734Z,101033.00
2022-09-01T17:23:52.949Z,101033.00
2022-09-01T17:26:27.666Z,101023.00
2022-09-01T17:29:30.313Z,101026.00
2022-09-01T17:32:20.301Z,101030.00
2022-09-01T17:35:17.491Z,101031.00
2022-09-01T17:38:14.673Z,101038.00
2022-09-01T17:41:07.728Z,101040.00
2022-09-01T17:43:53.402Z,101033.00
2022-09-01T17:47:07.110Z,101041.00
2022-09-01T17:49:47.171Z,101038.00
2022-09-01T17:52:52.355Z,101046.00
2022-09-01T17:56:02.465Z,101037.00
2022-09-01T17:58:50.591Z,101041.00
2022-09-01T18:02:04.206Z,101045.00
2022-09-01T18:05:13.187Z,101044.00
2022-09-01T18:07:57.196Z,101042.00
2022-09-01T18:10:54.173Z,101037.00
2022-09-01T18:13:52.392Z,101032.00
2022-09-01T18:16:27.882Z,101043.00
2022-09-01T18:19:10.787Z,101044.00
2022-09-01T18:21:57.405Z,101048.00
2022-09-01T18:25:00.855Z,101044.00
2022-09-01T18:27:32.755Z,101055.00
2022-09-01T18:30:04.418Z,101053.00
2022-09-01T18:32:43.158Z,101054.00
2022-09-01T18:35:30.817Z,101051.00
2022-09-01T18:38:48.546Z,101058.00
2022-09-01T18:42:02.878Z,101056.00
2022-09-01T18:45:15.840Z,101052.00
2022-09-01T18:48:09.830Z,101059.00
2022-09-01T18:51:05.998Z,101059.00
2022-09-01T18:54:05.059Z,101057.00
2022-09-01T18:56:37.409Z,101056.00
2022-09-01T18:59:34.821Z,101056.00
2022-09-01T19:02:40.433Z,101056.00
2022-09-01T19:06:02.001Z,101060.00
2022-09-01T19:09:11.974Z,101045.00
2022-09-01T19:12:25.125Z,101045.00
2022-09-01T19:15:19.848Z,101046.00
2022-09-01T19:17:48.881Z,101048.00
2022-09-01T19:20:32.595Z,101062.00
2022-09-01T19:23:36.170Z,101051.00
2022-09-01T19:26:17.146Z,101053.00
2022-09-01T19:29:05.849Z,101060.00
2022-09-01T19:32:02.871Z,101057.00
2022-09-01T19:34:40.825Z,101059.00
2022-09-01T19:37:09.308Z,101061.00
2022-09-01T19:39:44.779Z,101059.00
2022-09-01T19:42:46.167Z,101054.00
2022-09-01T19:45:21.419Z,101060.00
2022-09-01T19:47:59.389Z,101058.00
2022-09-01T19:50:51.051Z,101057.00
2022-09-01T19:53:59.410Z,101052.00
2022-09-01T19:57:01.621Z,101057.00
2022-09-01T20:00:09.618Z,101059.00
2022-09-01T20:02:47.940Z,101066.00
2022-09-01T20:05:43.356Z,101068.00
2022-09-01T20:08:41.244Z,101064.00
2022-09-01T20:11:22.292Z,101071.00
2022-09-01T20:14:17.737Z,101064.00
2022-09-01T20:16:50.867Z,101066.00
2022-09-01T20:19:43.082Z,101066.00
2022-09-01T20:22:33.414Z,101072.00
2022-09-01T20:25:15.314Z,101067.00
2022-09-01T20:28:00.609Z,101074.00
2022-09-01T20:30:41.127Z,101078.00
2022-09-01T20:33:23.980Z,101076.00
2022-09-01T20:36:10.776Z,101073.00
2022-09-01T20:39:24.847Z,101070.00
2022-09-01T20:42:21.506Z,101077.00
2022-09-01T20:45:01.520Z,101080.00
2022-09-01T20:47:32.204Z,101082.00
2022-09-01T20:50:02.617Z,101075.00
2022-09-01T20:53:14.508Z,101079.00
2022-09-01T20:56:04.784Z,101079.00
2022-09-01T20:58:44.906Z,101071.00
2022-09-01T21:01:38.146Z,101072.00
2022-09-01T21:04:26.555Z,101079.00
2022-09-01T21:07:08.645Z,101079.00
2022-09-01T21:09:59.064Z,101077.00
2022-09-01T21:12:52.492Z,101084.00
2022-09-01T21:16:13.711Z,101076.00
2022-09-01T21:19:13.175Z,101079.00
2022-09-01T21:22:09.853Z,101083.00
2022-09-01T21:24:38.663Z,101076.00
2022-09-01T21:27:14.484Z,101081.00
2022-09-01T21:30:11.095Z,101077.00
2022-09-01T21:32:40.043Z,101077.00
2022-09-01T21:35:12.859Z,101069.00
2022-09-01T21:37:41.387Z,101075.00
2022-09-01T21:40:11.360Z,101075.00
2022-09-01T21:42:58.662Z,101075.00
2022-09-01T21:45:27.380Z,101073.00
2022-09-01T21:47:55.881Z,101074.00
2022-09-01T21:50:25.583Z,101073.00
2022-09-01T21:52:53.659Z,101073.00
2022-09-01T21:55:24.462Z,101068.00
2022-09-01T21:57:53.382Z,101070.00
2022-09-01T22:00:24.497Z,101068.00
2022-09-01T22:02:53.877Z,101060.00
2022-09-01T22:05:26.506Z,101069.00
2022-09-01T22:07:56.239Z,101073.00
2022-09-01T22:10:27.111Z,101072.00
2022-09-01T22:12:56.487Z,101074.00
2022-09-01T22:15:25.911Z,101075.00
2022-09-01T22:17:55.691Z,101068.00
2022-09-01T22:20:25.307Z,101079.00
2022-09-01T22:22:57.077Z,101068.00
2022-09-01T22:25:25.327Z,101065.00
2022-09-01T22:27:53.237Z,101062.00
2022-09-01T22:30:21.271Z,101062.00
2022-09-01T22:32:49.651Z,101064.00
2022-09-01T22:35:18.696Z,101059.00
2022-09-01T22:37:47.237Z,101058.00
2022-09-01T22:40:16.287Z,101058.00
2022-09-01T22:42:44.759Z,101051.00
2022-09-01T22:45:14.763Z,101052.00
2022-09-01T22:47:42.789Z,101057.00
2022-09-01T22:50:11.913Z,101062.00
2022-09-01T22:52:40.572Z,101049.00
2022-09-01T22:55:10.881Z,101050.00
2022-09-01T22:57:38.974Z,101057.00
2022-09-01T23:00:10.193Z,101052.00
2022-09-01T23:02:38.342Z,101051.00
2022-09-01T23:05:06.875Z,101054.00
2022-09-01T23:07:39.568Z,101043.00
2022-09-01T23:10:09.576Z,101049.00
2022-09-01T23:12:37.681Z,101041.00
2022-09-01T23:15:06.355Z,101038.00
2022-09-01T23:17:38.972Z,101049.00
2022-09-01T23:20:11.594Z,101051.00
2022-09-01T23:22:41.578Z,101052.00
2022-09-01T23:25:10.813Z,101044.00
2022-09-01T23:27:39.262Z,101045.00
2022-09-01T23:30:10.451Z,101041.00
2022-09-01T23:32:38.601Z,101041.00
2022-09-01T23:35:07.374Z,101042.00
2022-09-01T23:37:35.626Z,101044.00
2022-09-01T23:40:05.611Z,101044.00
2022-09-01T23:42:33.627Z,101038.00
2022-09-01T23:45:01.713Z,101035.00
2022-09-01T23:47:31.293Z,101033.00
2022-09-01T23:49:59.278Z,101027.00
2022-09-01T23:52:27.287Z,101035.00
2022-09-01T23:54:55.162Z,101030.00
2022-09-01T23:57:23.137Z,101032.00
2022-09-01T23:59:51.095Z,101020.00
